The Sea Ranch, CA (95497)

10:00 PM PDT on August 29, 2014 (GMT -0700)
Unit 18, The Sea Ranch, CA | Change Station
CLOSE
Current Station
Personal Weather Station
Location: The Sea Ranch, CA
Elevation: 80 ft
Nearby Weather Stations

Elev 80 ft 38.71 °N, 123.45 °W | Updated 14 minutes ago

Mostly Cloudy
Mostly Cloudy
58.2 °F
Feels Like 58.2 °F
N
0.0
Wind Variable Wind from ENE
Gusts 1.0 mph

Today
High -- | Low -- °F
--% Chance of Precip.
Yesterday
High -- | Low -- °F
Precip. -- in
6:40 AM 7:48 PM
Waxing Crescent, 19% visible
Pressure 29.87 in
Visibility 10.0 miles
Clouds Clear
Dew Point 56 °F
Humidity 92%
Rainfall 0.00 in
Snow Depth Not available.
UV 0.0 out of 12
Pollen 7.40 out of 12
Air Quality Not available.
Flu Activity Not available.
METAR KUKI 300356Z AUTO 00000KT 10SM CLR 25/05 A2989 RMK AO2 SLP115 T02500050

More Conditions Fewer Conditions

Pressure 29.87 in
Visibility 10.0 miles
Clouds Clear
Dew Point 56 °F
Humidity 92%
Rainfall 0.00 in
Snow Depth Not available.
UV 0.0 out of 12
Pollen 7.40 out of 12
Air Quality Not available.
Flu Activity Not available.
METAR KUKI 300356Z AUTO 00000KT 10SM CLR 25/05 A2989 RMK AO2 SLP115 T02500050

More Conditions Fewer Conditions

10-Day Weather Forecast

Almanac

Astronomy

Aug. 29, 2014 Rise Set
Actual Time 6:40 AM PDT 7:48 PM PDT
Civil Twilight 6:13 AM PDT 8:15 PM PDT
Nautical Twilight 5:40 AM PDT 8:48 PM PDT
Astronomical Twilight 5:06 AM PDT 9:22 PM PDT
Moon 10:32 AM PDT (8/29) 9:52 PM PDT (8/29)
Length of Visible Light 14h 02m
Length of Day
13h 08m
Tomorrow will be 2m 24s shorter.
Waxing Crescent, 19% of the Moon is Illuminated
Aug 30
Waxing Crescent
Sep 2
First Quarter
Sep 8
Full
Sep 15
Last Quarter
Sep 24
New

Yesterday's Extremes

State Highs State Lows

Community

WunderPhotos

Upload Photos

1,748,459 photos uploaded!

Nearby

Snow Depth

Station Depth Elevation
CSS Lab 2 in 6900 ft
Echo Peak 0 in 7800 ft
Hagan's Meadow 0 in 8000 ft
Blue Lakes 0 in 8000 ft
Monitor Pass 0 in 8350 ft

Earthquake Activity

City Distance Mag. Time & Date
The Geysers, California 35 miles 2.7 2:53 PM PDT
2014-08-29
Napa, California 70 miles 2.6 11:57 AM PDT
2014-08-27
The Geysers, California 35 miles 2.6 7:42 AM PDT
2014-08-27
Minimum magnitude displayed is 2.5.

Coastal Water Temperatures

Place Temperature
Point Reyes, CA 63.0 °F
Arena Cove, CA 57.0 °F
San Francisco, CA 64.9 °F
Richmond, CA 66.9 °F

Nearby Weather Stations